Time;durP1;ratioP1;P1;durP2;ratioP2;P2;SDS_P1;SDS_P2;PMS_P1;PMS_P2;Temp;Humidity;BMP_temperature;BMP_pressure;BME280_temperature;BME280_humidity;BME280_pressure;Samples;Min_cycle;Max_cycle;Signal;HPM_P1;HPM_P2
2024/04/06 00:01:15;;;;;;;6.82;1.20;;;;;;;13.29;73.49;98955.69;4990718;28;20129;-52
2024/04/06 00:03:40;;;;;;;7.53;1.60;;;;;;;13.27;73.12;98971.31;4988779;28;20068;-52
2024/04/06 00:06:07;;;;;;;6.22;0.90;;;;;;;13.31;73.56;98970.31;4988291;28;20053;-51
2024/04/06 00:08:33;;;;;;;3.85;1.20;;;;;;;13.25;73.44;98960.13;5005055;28;20054;-49
2024/04/06 00:10:58;;;;;;;5.40;1.23;;;;;;;13.22;73.83;98947.22;4998929;28;20061;-51
2024/04/06 00:13:24;;;;;;;6.88;1.55;;;;;;;13.24;74.56;98963.63;5012636;28;20472;-53
2024/04/06 00:15:50;;;;;;;8.20;1.15;;;;;;;13.29;74.09;98953.94;4991708;28;20046;-52
2024/04/06 00:18:16;;;;;;;5.43;1.38;;;;;;;13.32;73.30;98956.44;4995664;28;20041;-50
2024/04/06 00:20:41;;;;;;;9.68;1.52;;;;;;;13.35;73.50;98961.53;4999565;28;20050;-49
2024/04/06 00:23:07;;;;;;;8.63;0.90;;;;;;;13.39;73.95;98945.84;4997789;28;20058;-53
2024/04/06 00:25:33;;;;;;;7.55;0.73;;;;;;;13.40;73.45;98956.19;4994870;28;20068;-49
2024/04/06 00:27:58;;;;;;;4.90;0.82;;;;;;;13.34;74.49;98939.03;4996252;28;20050;-51
2024/04/06 00:30:24;;;;;;;6.00;1.15;;;;;;;13.36;73.97;98947.66;4993232;28;20057;-50
2024/04/06 00:32:50;;;;;;;9.38;1.40;;;;;;;13.37;74.03;98923.34;4990787;28;20058;-49
2024/04/06 00:35:16;;;;;;;5.65;1.55;;;;;;;13.37;74.37;98928.53;4999842;28;20458;-49
2024/04/06 00:37:42;;;;;;;4.75;1.08;;;;;;;13.27;74.86;98924.53;5000446;28;20510;-51
2024/04/06 00:40:08;;;;;;;3.67;1.00;;;;;;;13.35;74.14;98909.50;4996770;28;20504;-49
2024/04/06 00:42:35;;;;;;;5.97;1.25;;;;;;;13.41;74.60;98911.06;5012540;28;20054;-51
2024/04/06 00:45:00;;;;;;;5.43;0.93;;;;;;;13.38;74.14;98911.19;4980588;28;20045;-50
2024/04/06 00:47:26;;;;;;;9.95;1.15;;;;;;;13.40;73.95;98892.94;4995873;28;20058;-51
2024/04/06 00:49:52;;;;;;;3.78;1.02;;;;;;;13.37;74.69;98907.72;4994950;28;20638;-50
2024/04/06 00:52:17;;;;;;;5.07;1.00;;;;;;;13.39;73.67;98893.81;5000770;28;20053;-49
2024/04/06 00:54:43;;;;;;;8.90;1.10;;;;;;;13.41;74.36;98902.44;4997541;28;20046;-52
2024/04/06 00:57:09;;;;;;;8.50;1.20;;;;;;;13.40;73.83;98895.53;5013944;28;20052;-51
2024/04/06 00:59:37;;;;;;;4.72;0.93;;;;;;;13.40;74.82;98890.34;4998031;28;20066;-47
2024/04/06 01:02:03;;;;;;;6.07;1.38;;;;;;;13.36;74.71;98890.44;4999429;28;20054;-52
2024/04/06 01:04:29;;;;;;;5.22;1.92;;;;;;;13.40;74.66;98890.34;4999170;28;20458;-49
2024/04/06 01:06:56;;;;;;;2.65;0.60;;;;;;;13.39;74.36;98883.41;5000756;28;20053;-49
2024/04/06 01:09:22;;;;;;;6.95;0.93;;;;;;;13.37;75.45;98876.53;5001770;28;20495;-51
2024/04/06 01:11:48;;;;;;;7.72;1.00;;;;;;;13.35;75.14;98880.91;4995258;28;20779;-52
2024/04/06 01:14:14;;;;;;;2.45;0.77;;;;;;;13.34;75.50;98868.81;4997336;28;20062;-49
2024/04/06 01:16:39;;;;;;;7.90;0.93;;;;;;;13.33;75.43;98874.94;4997206;28;20046;-50
2024/04/06 01:19:05;;;;;;;4.13;0.70;;;;;;;13.40;75.17;98869.53;5012844;28;20038;-48
2024/04/06 01:21:31;;;;;;;2.92;0.88;;;;;;;13.39;75.42;98860.88;4996028;28;20101;-51
2024/04/06 01:23:56;;;;;;;4.05;0.68;;;;;;;13.45;75.99;98844.22;4994551;28;20049;-51
2024/04/06 01:26:23;;;;;;;6.05;0.73;;;;;;;13.45;76.06;98844.22;5006506;28;20058;-48
2024/04/06 01:28:49;;;;;;;2.50;1.10;;;;;;;13.45;75.93;98847.66;4983203;28;20046;-48
2024/04/06 01:31:15;;;;;;;4.88;1.17;;;;;;;13.47;76.37;98837.19;4997912;28;20057;-49
2024/04/06 01:33:41;;;;;;;4.47;0.98;;;;;;;13.54;75.51;98838.72;5003990;28;20565;-48
2024/04/06 01:36:07;;;;;;;5.57;1.15;;;;;;;13.55;75.78;98832.63;4995966;28;20109;-49
2024/04/06 01:38:33;;;;;;;6.88;1.20;;;;;;;13.56;75.28;98843.88;4997177;28;20050;-51
2024/04/06 01:40:59;;;;;;;8.93;2.03;;;;;;;13.56;75.19;98836.06;4989112;28;20057;-52
2024/04/06 01:43:25;;;;;;;2.53;0.95;;;;;;;13.58;75.89;98848.09;4998883;28;20049;-48
2024/04/06 01:45:51;;;;;;;5.70;0.65;;;;;;;13.59;75.91;98839.41;5001438;28;20202;-48
2024/04/06 01:48:17;;;;;;;6.63;1.13;;;;;;;13.56;76.05;98842.13;4998046;28;20531;-51
2024/04/06 01:50:43;;;;;;;5.55;0.73;;;;;;;13.53;76.34;98837.03;4996521;28;20085;-50
2024/04/06 01:53:08;;;;;;;3.17;0.80;;;;;;;13.57;76.52;98835.16;4997241;28;20050;-48
2024/04/06 01:55:34;;;;;;;1.35;0.52;;;;;;;13.53;76.13;98818.81;5002276;28;20050;-49
2024/04/06 01:57:59;;;;;;;4.10;1.23;;;;;;;13.60;76.12;98814.25;4992764;28;20525;-51
2024/04/06 02:00:25;;;;;;;5.50;0.80;;;;;;;13.65;76.57;98822.75;5000201;28;20049;-50
2024/04/06 02:02:51;;;;;;;5.65;2.30;;;;;;;13.63;76.03;98808.94;4994794;28;20575;-49
2024/04/06 02:05:16;;;;;;;6.00;1.25;;;;;;;13.65;76.75;98790.66;5005335;28;20053;-49
2024/04/06 02:07:42;;;;;;;2.97;0.70;;;;;;;13.72;76.06;98779.97;5007305;28;20049;-48
2024/04/06 02:10:08;;;;;;;4.20;1.48;;;;;;;13.75;76.00;98771.22;4993597;28;20061;-48
2024/04/06 02:12:33;;;;;;;3.83;1.25;;;;;;;13.75;75.69;98750.41;4993038;28;20045;-51
2024/04/06 02:14:59;;;;;;;2.42;0.82;;;;;;;13.77;75.58;98753.78;4997537;28;20045;-54
2024/04/06 02:17:24;;;;;;;6.07;1.42;;;;;;;13.75;75.53;98750.41;4997455;28;20062;-48
2024/04/06 02:19:50;;;;;;;2.83;0.73;;;;;;;13.83;75.79;98774.41;4999183;28;20148;-52
2024/04/06 02:22:16;;;;;;;8.38;1.20;;;;;;;13.85;75.68;98772.56;4996551;28;20056;-49
2024/04/06 02:24:41;;;;;;;4.43;0.90;;;;;;;13.85;75.96;98767.38;4992068;28;20097;-51
2024/04/06 02:27:07;;;;;;;3.22;1.05;;;;;;;13.94;75.18;98765.31;5018260;28;20058;-53
2024/04/06 02:29:33;;;;;;;8.35;1.67;;;;;;;13.98;75.44;98756.50;4999935;28;20049;-51
2024/04/06 02:31:59;;;;;;;5.03;1.17;;;;;;;14.01;74.88;98753.78;5000042;28;20058;-54
2024/04/06 02:34:24;;;;;;;1.90;0.95;;;;;;;14.03;75.08;98758.94;5011855;28;20046;-53
2024/04/06 02:36:50;;;;;;;2.92;0.88;;;;;;;14.05;75.14;98760.56;4996513;28;20457;-50
2024/04/06 02:39:16;;;;;;;4.30;0.90;;;;;;;14.05;75.54;98757.97;5002753;28;20101;-51
2024/04/06 02:41:41;;;;;;;2.45;0.80;;;;;;;14.07;75.04;98750.09;4999286;28;20057;-50
2024/04/06 02:44:07;;;;;;;5.10;1.05;;;;;;;14.08;75.30;98742.22;4999315;28;20046;-50
2024/04/06 02:46:33;;;;;;;5.70;1.70;;;;;;;14.08;74.55;98731.81;5001375;28;20050;-52
2024/04/06 02:48:59;;;;;;;7.22;1.20;;;;;;;14.11;74.94;98726.50;5015619;28;20558;-50
2024/04/06 02:51:25;;;;;;;6.30;1.27;;;;;;;14.11;74.91;98723.91;4990342;28;20064;-50
2024/04/06 02:53:51;;;;;;;5.43;1.25;;;;;;;14.12;75.26;98717.78;5001052;28;20136;-51
2024/04/06 02:56:16;;;;;;;2.55;1.30;;;;;;;14.11;75.48;98705.66;5008034;28;20058;-47
2024/04/06 02:58:42;;;;;;;2.85;1.20;;;;;;;14.11;75.82;98700.47;5001180;28;20104;-51
2024/04/06 03:01:08;;;;;;;2.50;1.42;;;;;;;14.09;75.85;98694.44;5011805;28;20138;-52
2024/04/06 03:03:34;;;;;;;3.10;1.08;;;;;;;14.11;76.45;98674.44;4999106;28;20057;-49
2024/04/06 03:06:00;;;;;;;4.03;0.98;;;;;;;14.07;75.88;98672.84;4996359;28;20132;-50
2024/04/06 03:08:26;;;;;;;2.58;1.05;;;;;;;14.07;76.00;98672.84;5000024;28;20089;-49
2024/04/06 03:10:52;;;;;;;3.42;0.90;;;;;;;14.10;76.15;98666.66;5002018;28;20068;-50
2024/04/06 03:13:19;;;;;;;2.70;1.27;;;;;;;14.11;75.73;98647.53;5002312;28;20050;-47
2024/04/06 03:15:45;;;;;;;2.58;1.05;;;;;;;14.07;76.47;98645.97;5004079;28;20061;-50
2024/04/06 03:18:12;;;;;;;2.30;0.82;;;;;;;14.08;76.05;98643.28;4998862;28;20050;-52
2024/04/06 03:20:38;;;;;;;1.13;0.73;;;;;;;14.08;76.67;98638.09;5004642;28;20108;-49
2024/04/06 03:23:05;;;;;;;4.68;1.60;;;;;;;13.98;77.38;98611.59;5001228;28;20046;-51
2024/04/06 03:25:32;;;;;;;1.92;0.88;;;;;;;14.05;77.39;98616.56;4986630;28;20046;-50
2024/04/06 03:27:58;;;;;;;2.05;1.02;;;;;;;14.06;76.81;98606.09;4988705;28;20041;-50
2024/04/06 03:30:25;;;;;;;1.75;0.85;;;;;;;14.03;76.94;98608.81;4997930;28;20099;-49
2024/04/06 03:32:51;;;;;;;2.40;0.57;;;;;;;13.90;77.09;98598.03;4997626;28;20058;-53
2024/04/06 03:35:18;;;;;;;2.72;0.88;;;;;;;14.01;77.52;98592.38;4999425;28;20049;-48
2024/04/06 03:37:48;;;;;;;3.10;0.93;;;;;;;13.94;76.87;98589.19;5013834;28;20414;-49
2024/04/06 03:40:15;;;;;;;1.42;1.02;;;;;;;13.91;77.06;98580.66;4995181;28;20446;-53
2024/04/06 03:42:40;;;;;;;4.85;1.80;;;;;;;13.92;77.19;98567.59;4984068;28;20093;-52
2024/04/06 03:45:06;;;;;;;1.65;1.15;;;;;;;13.95;76.87;98556.22;4983226;28;20050;-49
2024/04/06 03:47:32;;;;;;;2.83;1.10;;;;;;;13.90;77.27;98545.13;4999098;28;20182;-53
2024/04/06 03:49:58;;;;;;;1.65;0.82;;;;;;;13.90;77.01;98529.50;4998344;28;20057;-50
2024/04/06 03:52:24;;;;;;;5.13;0.60;;;;;;;13.90;76.78;98537.31;5013532;28;20077;-50
2024/04/06 03:54:50;;;;;;;2.05;1.15;;;;;;;13.88;76.44;98530.41;4991754;28;20057;-51
2024/04/06 03:57:16;;;;;;;2.40;1.05;;;;;;;13.90;76.82;98537.31;4997072;28;20104;-50
2024/04/06 03:59:41;;;;;;;3.78;1.23;;;;;;;13.90;76.37;98534.72;4995155;28;20058;-51
2024/04/06 04:02:07;;;;;;;3.95;1.25;;;;;;;13.84;75.77;98531.47;4998539;28;20577;-47
2024/04/06 04:04:32;;;;;;;2.45;0.73;;;;;;;13.90;75.78;98537.31;4996331;28;20054;-54
2024/04/06 04:06:58;;;;;;;1.75;0.88;;;;;;;13.91;75.85;98520.81;5007985;28;20054;-51
2024/04/06 04:09:24;;;;;;;1.92;1.02;;;;;;;13.89;76.18;98518.28;4996883;28;20458;-51
2024/04/06 04:11:50;;;;;;;3.10;1.30;;;;;;;13.86;75.90;98518.38;4998825;28;20482;-49
2024/04/06 04:14:16;;;;;;;3.60;1.45;;;;;;;13.94;75.23;98510.25;4996213;28;20057;-48
2024/04/06 04:16:42;;;;;;;3.17;0.98;;;;;;;13.94;74.84;98510.25;5001252;28;20137;-51
2024/04/06 04:19:07;;;;;;;3.92;1.20;;;;;;;13.92;75.09;98505.13;4999303;28;20050;-52
2024/04/06 04:21:33;;;;;;;3.88;2.35;;;;;;;13.84;74.83;98489.81;4994091;28;20901;-49
2024/04/06 04:23:59;;;;;;;1.73;1.42;;;;;;;13.84;74.19;98484.63;4996664;28;20053;-49
2024/04/06 04:26:25;;;;;;;1.30;0.80;;;;;;;13.88;74.04;98491.38;5009319;28;20061;-53
2024/04/06 04:28:50;;;;;;;3.10;1.85;;;;;;;13.92;73.73;98491.25;5020323;28;20446;-50
2024/04/06 04:31:17;;;;;;;2.03;1.13;;;;;;;13.92;73.62;98486.91;5015525;28;20049;-51
2024/04/06 04:33:44;;;;;;;1.63;0.90;;;;;;;13.96;73.44;98487.63;4997424;28;20377;-48
2024/04/06 04:36:12;;;;;;;1.42;0.80;;;;;;;14.01;72.76;98485.66;4994338;28;20419;-49
2024/04/06 04:38:37;;;;;;;1.58;1.20;;;;;;;13.94;73.65;98479.00;4986164;28;20053;-49
2024/04/06 04:41:03;;;;;;;2.08;1.52;;;;;;;13.91;72.77;98474.78;4991841;28;20112;-50
2024/04/06 04:43:29;;;;;;;1.40;0.70;;;;;;;13.85;73.30;98464.66;4998668;28;20042;-52
2024/04/06 04:45:55;;;;;;;3.28;1.35;;;;;;;13.83;72.95;98462.13;4994743;28;20057;-51
2024/04/06 04:48:21;;;;;;;1.67;0.82;;;;;;;13.83;73.43;98449.09;4997845;28;20125;-50
2024/04/06 04:50:47;;;;;;;1.77;1.02;;;;;;;13.84;73.39;98442.13;4998126;28;20057;-48
2024/04/06 04:53:12;;;;;;;3.88;1.90;;;;;;;13.82;73.84;98438.75;4994012;28;20065;-53
2024/04/06 04:55:38;;;;;;;2.92;1.38;;;;;;;13.80;72.97;98432.75;4994582;28;20056;-52
2024/04/06 04:58:04;;;;;;;2.75;1.25;;;;;;;13.86;72.96;98429.91;4992804;28;20288;-53
2024/04/06 05:00:29;;;;;;;1.88;1.17;;;;;;;13.78;72.57;98418.97;5004215;28;20038;-51
2024/04/06 05:02:56;;;;;;;1.83;0.88;;;;;;;13.78;72.46;98414.59;4998367;28;20113;-53
2024/04/06 05:05:23;;;;;;;1.63;1.13;;;;;;;13.79;72.93;98413.72;4986924;28;20117;-53
2024/04/06 05:07:48;;;;;;;1.55;0.90;;;;;;;13.81;72.54;98411.06;4996266;28;20054;-50
2024/04/06 05:10:14;;;;;;;4.18;1.00;;;;;;;13.76;72.96;98406.03;5000274;28;20061;-53
2024/04/06 05:12:40;;;;;;;2.35;1.25;;;;;;;13.80;72.54;98404.13;4996040;28;20061;-51
2024/04/06 05:15:06;;;;;;;1.40;0.70;;;;;;;13.80;72.91;98411.94;4997918;28;20042;-50
2024/04/06 05:17:32;;;;;;;2.08;1.02;;;;;;;13.80;72.91;98399.78;4995375;28;20108;-49
2024/04/06 05:19:58;;;;;;;1.55;1.00;;;;;;;13.80;72.52;98399.78;4998703;28;20062;-52
2024/04/06 05:22:23;;;;;;;2.53;1.23;;;;;;;13.84;71.70;98406.53;4987799;28;20682;-51
2024/04/06 05:24:49;;;;;;;4.10;2.08;;;;;;;13.84;72.26;98396.13;4985713;28;20072;-51
2024/04/06 05:27:14;;;;;;;3.35;1.77;;;;;;;13.82;72.54;98415.34;5001606;28;20061;-51
2024/04/06 05:29:40;;;;;;;3.22;1.23;;;;;;;13.90;72.05;98388.97;4998195;28;20050;-53
2024/04/06 05:32:06;;;;;;;8.07;1.20;;;;;;;13.93;71.73;98388.84;4994526;28;20073;-54
2024/04/06 05:34:32;;;;;;;2.53;1.25;;;;;;;13.94;71.67;98385.31;4993796;28;20048;-52
2024/04/06 05:36:57;;;;;;;1.20;0.95;;;;;;;13.99;71.65;98365.16;4996874;28;20065;-50
2024/04/06 05:39:23;;;;;;;2.92;1.05;;;;;;;13.92;71.71;98371.53;4994389;28;20084;-52
2024/04/06 05:41:49;;;;;;;2.88;1.10;;;;;;;13.96;71.46;98370.50;5000904;28;20050;-51
2024/04/06 05:44:15;;;;;;;3.25;1.23;;;;;;;13.98;71.32;98374.72;4994696;28;20056;-53
2024/04/06 05:46:40;;;;;;;2.03;1.00;;;;;;;13.99;71.45;98365.16;4998705;28;20475;-51
2024/04/06 05:49:06;;;;;;;3.85;1.23;;;;;;;13.98;71.48;98366.91;4998299;28;20068;-51
2024/04/06 05:51:32;;;;;;;1.23;0.88;;;;;;;14.03;71.34;98353.69;4997483;28;20507;-48
2024/04/06 05:54:00;;;;;;;3.92;1.38;;;;;;;14.06;71.07;98353.56;4998734;28;20046;-50
2024/04/06 05:56:26;;;;;;;4.22;2.90;;;;;;;14.05;71.17;98351.84;4999937;28;20634;-51
2024/04/06 05:58:52;;;;;;;3.92;1.70;;;;;;;14.03;71.79;98343.28;4999132;28;20102;-49
2024/04/06 06:01:17;;;;;;;3.75;2.65;;;;;;;14.08;71.35;98362.13;5000170;28;20568;-50
2024/04/06 06:03:43;;;;;;;1.80;1.13;;;;;;;14.11;71.61;98367.22;4995208;28;20073;-52
2024/04/06 06:06:09;;;;;;;1.95;1.00;;;;;;;14.11;71.51;98356.81;4992907;28;20488;-53
2024/04/06 06:08:34;;;;;;;3.50;1.20;;;;;;;14.18;71.56;98351.34;5001508;28;20050;-50
2024/04/06 06:11:00;;;;;;;3.35;1.42;;;;;;;14.21;71.63;98367.66;4995312;28;20057;-49
2024/04/06 06:13:26;;;;;;;3.75;1.30;;;;;;;14.26;71.90;98344.03;4999717;28;20042;-50
2024/04/06 06:15:51;;;;;;;2.30;1.20;;;;;;;14.31;71.11;98352.44;5001261;28;20072;-51
2024/04/06 06:18:17;;;;;;;2.50;1.10;;;;;;;14.38;71.23;98343.44;4993071;28;20076;-51
2024/04/06 06:20:43;;;;;;;1.70;1.10;;;;;;;14.37;70.97;98344.38;5005839;28;20129;-49
2024/04/06 06:23:08;;;;;;;2.75;1.00;;;;;;;14.41;70.75;98342.47;4995925;28;20126;-50
2024/04/06 06:25:34;;;;;;;3.35;0.80;;;;;;;14.40;71.02;98348.59;4999426;28;20063;-51
2024/04/06 06:28:00;;;;;;;1.40;0.90;;;;;;;14.46;70.72;98350.06;5012310;28;20047;-50
2024/04/06 06:30:26;;;;;;;4.75;1.15;;;;;;;14.50;70.83;98352.47;4992956;28;20046;-49
2024/04/06 06:32:52;;;;;;;1.75;0.90;;;;;;;14.53;70.48;98361.91;5004221;28;20495;-49
2024/04/06 06:35:18;;;;;;;4.30;1.05;;;;;;;14.54;70.26;98360.97;5002196;28;20061;-49
2024/04/06 06:37:45;;;;;;;3.05;1.02;;;;;;;14.57;70.31;98347.81;4994598;28;20042;-51
2024/04/06 06:40:11;;;;;;;3.63;0.90;;;;;;;14.58;70.05;98333.88;4997423;28;20578;-49
2024/04/06 06:42:37;;;;;;;3.60;1.20;;;;;;;14.61;70.21;98333.72;5017420;28;20042;-49
2024/04/06 06:45:05;;;;;;;3.58;1.25;;;;;;;14.68;69.74;98334.28;4995172;28;20058;-49
2024/04/06 06:47:35;;;;;;;2.22;1.02;;;;;;;14.73;70.23;98341.88;5000901;28;20077;-50
2024/04/06 06:50:02;;;;;;;2.75;1.02;;;;;;;14.72;69.69;98329.75;4998771;28;20066;-51
2024/04/06 06:52:28;;;;;;;1.80;1.00;;;;;;;14.72;69.72;98334.97;5001755;28;20050;-49
2024/04/06 06:54:53;;;;;;;4.10;0.88;;;;;;;14.72;68.53;98334.97;4995250;28;20038;-50
2024/04/06 06:57:19;;;;;;;2.58;1.00;;;;;;;14.70;69.55;98321.19;5001672;28;20050;-49
2024/04/06 06:59:45;;;;;;;3.10;1.60;;;;;;;14.75;69.19;98311.38;5004274;28;20089;-48
2024/04/06 07:02:10;;;;;;;2.22;1.52;;;;;;;14.81;69.58;98295.47;5004079;28;20495;-49
2024/04/06 07:04:36;;;;;;;1.85;0.88;;;;;;;15.16;69.07;98295.50;5010619;28;20034;-49
2024/04/06 07:07:03;;;;;;;3.58;1.63;;;;;;;15.84;67.86;98333.91;5005090;28;20053;-52
2024/04/06 07:09:28;;;;;;;2.75;1.33;;;;;;;16.42;66.04;98350.84;5000086;28;20787;-50
2024/04/06 07:11:55;;;;;;;3.55;1.73;;;;;;;16.86;64.60;98327.59;4994583;28;20050;-48
2024/04/06 07:14:20;;;;;;;1.73;1.20;;;;;;;17.19;63.00;98339.69;5009176;28;20058;-49
2024/04/06 07:16:46;;;;;;;4.80;1.77;;;;;;;17.53;62.35;98346.50;4993652;28;20057;-53
2024/04/06 07:19:12;;;;;;;2.80;1.15;;;;;;;17.80;61.69;98353.66;5003303;28;20050;-49
2024/04/06 07:21:38;;;;;;;5.70;1.42;;;;;;;18.08;60.61;98351.97;5016168;28;20061;-54
2024/04/06 07:24:04;;;;;;;2.35;1.13;;;;;;;18.29;60.42;98372.56;4989516;28;20042;-54
2024/04/06 07:26:29;;;;;;;2.20;1.48;;;;;;;18.37;59.56;98362.47;4986131;28;20691;-54
2024/04/06 07:28:56;;;;;;;3.88;1.67;;;;;;;18.34;59.21;98349.56;4981650;28;20115;-52
2024/04/06 07:31:23;;;;;;;5.03;1.42;;;;;;;18.33;59.19;98353.09;4995033;28;20057;-49
2024/04/06 07:33:50;;;;;;;1.65;1.10;;;;;;;18.44;59.00;98332.31;5014569;28;20045;-54
2024/04/06 07:36:17;;;;;;;2.08;1.20;;;;;;;18.63;58.97;98331.16;4990339;28;20049;-55
2024/04/06 07:38:43;;;;;;;2.65;1.92;;;;;;;18.80;58.78;98326.59;4983630;28;20120;-52
2024/04/06 07:41:09;;;;;;;2.65;1.40;;;;;;;18.91;57.70;98303.13;4995547;28;20478;-54
2024/04/06 07:43:35;;;;;;;2.88;1.58;;;;;;;19.08;58.13;98309.09;4997648;28;20177;-54
2024/04/06 07:46:02;;;;;;;3.35;1.55;;;;;;;19.27;57.91;98325.31;5001168;28;20069;-50
2024/04/06 07:48:27;;;;;;;4.97;1.42;;;;;;;19.41;56.92;98335.84;4998950;28;20068;-51
2024/04/06 07:50:53;;;;;;;2.30;1.38;;;;;;;19.59;56.74;98326.69;5008295;28;20055;-50
2024/04/06 07:53:19;;;;;;;4.03;1.30;;;;;;;19.87;56.40;98332.69;4996550;28;20105;-52
2024/04/06 07:55:45;;;;;;;1.95;1.13;;;;;;;20.01;55.73;98321.25;4998406;28;20069;-54
2024/04/06 07:58:11;;;;;;;1.13;0.80;;;;;;;19.95;55.77;98334.78;4993015;28;20054;-52
2024/04/06 08:00:37;;;;;;;2.63;1.65;;;;;;;19.75;55.86;98334.38;4993996;28;20057;-53
2024/04/06 08:03:04;;;;;;;3.50;1.45;;;;;;;19.53;56.32;98324.50;4978178;28;20046;-52
2024/04/06 08:05:30;;;;;;;3.28;1.63;;;;;;;19.24;57.07;98322.88;4997340;28;20049;-53
2024/04/06 08:07:56;;;;;;;3.20;1.30;;;;;;;19.17;57.14;98334.72;5010842;28;20065;-51
2024/04/06 08:10:22;;;;;;;4.07;1.33;;;;;;;19.25;57.92;98342.94;4996445;28;20057;-54
2024/04/06 08:12:50;;;;;;;2.42;1.65;;;;;;;19.26;57.40;98334.09;4998030;28;20141;-51
2024/04/06 08:15:16;;;;;;;3.30;1.10;;;;;;;19.30;56.44;98328.66;4997276;28;20046;-53
2024/04/06 08:17:45;;;;;;;5.93;1.10;;;;;;;19.36;57.02;98334.31;4994928;28;20061;-51
2024/04/06 08:20:11;;;;;;;3.63;1.42;;;;;;;19.50;57.05;98325.56;5003249;28;20057;-52
2024/04/06 08:22:37;;;;;;;2.95;1.58;;;;;;;19.44;57.13;98315.44;4996670;28;20439;-54
2024/04/06 08:25:05;;;;;;;3.75;1.05;;;;;;;19.43;57.07;98331.31;4996066;28;20046;-52
2024/04/06 08:27:33;;;;;;;2.22;1.45;;;;;;;19.35;56.40;98318.72;4995829;28;20057;-51
2024/04/06 08:29:59;;;;;;;3.35;1.00;;;;;;;19.40;57.11;98319.22;4997427;28;20046;-53
2024/04/06 08:32:25;;;;;;;2.50;1.17;;;;;;;19.45;56.62;98340.75;4986153;28;20550;-51
2024/04/06 08:34:55;;;;;;;6.28;1.65;;;;;;;19.38;56.47;98326.34;4992522;28;20061;-51
2024/04/06 08:37:22;;;;;;;4.78;1.98;;;;;;;19.50;56.56;98322.06;4994360;28;20050;-53
2024/04/06 08:39:48;;;;;;;4.07;1.10;;;;;;;19.64;56.62;98331.63;4995324;28;20467;-56
2024/04/06 08:42:19;;;;;;;3.40;0.80;;;;;;;19.72;56.52;98329.31;4989924;28;20054;-53
2024/04/06 08:44:45;;;;;;;4.18;1.15;;;;;;;19.64;56.69;98310.63;4999463;28;20050;-53
2024/04/06 08:47:13;;;;;;;6.13;1.15;;;;;;;19.58;56.33;98311.03;4980331;28;20058;-52
2024/04/06 08:49:40;;;;;;;4.13;1.40;;;;;;;19.50;56.04;98307.19;4991772;28;20518;-52
2024/04/06 08:52:07;;;;;;;4.55;1.85;;;;;;;19.58;56.54;98316.28;4996371;28;20428;-54
2024/04/06 08:54:34;;;;;;;1.95;0.77;;;;;;;19.46;56.47;98289.94;4986619;28;20050;-50
2024/04/06 08:57:00;;;;;;;6.47;1.38;;;;;;;19.34;56.10;98298.63;4995429;28;20060;-53
2024/04/06 08:59:27;;;;;;;4.55;1.77;;;;;;;19.46;56.54;98312.72;4995710;28;20088;-54
2024/04/06 09:01:53;;;;;;;3.78;2.28;;;;;;;19.50;56.30;98322.94;4997835;28;20054;-52
2024/04/06 09:04:22;;;;;;;3.55;1.00;;;;;;;19.57;56.17;98322.50;4992292;28;20050;-48
2024/04/06 09:06:48;;;;;;;2.70;1.88;;;;;;;19.60;56.57;98325.78;5000336;28;20041;-53
2024/04/06 09:09:14;;;;;;;4.38;2.55;;;;;;;19.59;55.97;98291.72;4994230;28;20572;-50
2024/04/06 09:11:41;;;;;;;4.50;1.75;;;;;;;19.63;56.27;98301.91;4993296;28;20169;-50
2024/04/06 09:14:08;;;;;;;2.28;1.30;;;;;;;19.58;56.49;98284.78;4994305;28;20491;-51
2024/04/06 09:16:36;;;;;;;4.15;1.73;;;;;;;19.44;56.75;98268.19;4987377;28;20046;-53
2024/04/06 09:19:01;;;;;;;3.58;0.98;;;;;;;19.18;56.55;98273.41;5005212;28;20057;-52
2024/04/06 09:21:28;;;;;;;6.72;2.05;;;;;;;18.99;57.35;98285.09;4991879;28;20041;-54
2024/04/06 09:23:54;;;;;;;4.97;1.73;;;;;;;18.94;57.55;98287.19;4993033;28;20491;-49
2024/04/06 09:26:20;;;;;;;4.35;1.52;;;;;;;18.83;57.62;98280.03;4990750;28;20054;-49
2024/04/06 09:28:50;;;;;;;3.50;1.63;;;;;;;18.60;57.42;98284.16;4976552;28;20047;-49
2024/04/06 09:31:22;;;;;;;4.07;1.80;;;;;;;18.57;58.12;98290.44;4991663;28;20057;-50
2024/04/06 09:33:54;;;;;;;2.08;1.13;;;;;;;18.57;58.06;98284.34;4996499;28;20049;-51
2024/04/06 09:36:20;;;;;;;7.50;1.30;;;;;;;18.56;58.35;98278.28;4994254;28;20053;-50
2024/04/06 09:38:47;;;;;;;4.30;1.65;;;;;;;18.52;59.39;98284.66;4993578;28;20061;-52
2024/04/06 09:41:16;;;;;;;3.92;1.80;;;;;;;18.44;58.75;98274.66;4995195;28;20522;-50
2024/04/06 09:43:45;;;;;;;2.50;1.23;;;;;;;18.37;59.14;98257.63;4977361;28;20050;-50
2024/04/06 09:46:11;;;;;;;5.35;1.40;;;;;;;18.41;59.70;98263.53;4997199;28;20384;-49
2024/04/06 09:48:39;;;;;;;5.43;1.30;;;;;;;18.34;59.36;98269.16;4994781;28;20047;-54
2024/04/06 09:51:05;;;;;;;5.82;1.60;;;;;;;18.27;59.05;98283.56;5006497;28;20050;-55
2024/04/06 09:53:33;;;;;;;2.47;0.93;;;;;;;18.28;59.49;98273.94;5000847;28;20062;-49
2024/04/06 09:56:01;;;;;;;5.03;1.38;;;;;;;18.21;59.81;98269.09;4999197;28;20601;-51
2024/04/06 09:58:28;;;;;;;3.58;1.20;;;;;;;18.14;60.42;98261.72;5005437;28;20674;-55
2024/04/06 10:00:56;;;;;;;3.35;1.70;;;;;;;17.92;60.46;98269.09;5000463;28;20053;-54
2024/04/06 10:03:32;;;;;;;5.30;1.77;;;;;;;18.03;59.98;98259.75;5000197;28;20054;-52
2024/04/06 10:06:08;;;;;;;7.75;1.48;;;;;;;17.94;60.55;98250.69;5004710;28;20060;-54
2024/04/06 10:08:45;;;;;;;4.50;2.03;;;;;;;17.83;61.19;98233.84;4961039;28;20057;-52
2024/04/06 10:11:12;;;;;;;3.88;1.63;;;;;;;17.80;61.36;98239.28;4995444;28;20443;-49
2024/04/06 10:13:38;;;;;;;8.80;1.40;;;;;;;17.79;61.02;98248.06;5002330;28;20049;-49
2024/04/06 10:16:04;;;;;;;6.95;1.63;;;;;;;17.84;61.75;98260.88;4998163;28;20080;-49
2024/04/06 10:18:30;;;;;;;5.07;1.52;;;;;;;17.89;61.92;98258.81;4997363;28;20108;-53
2024/04/06 10:20:57;;;;;;;15.38;1.70;;;;;;;17.88;61.10;98253.66;4986960;28;20119;-51
2024/04/06 10:23:22;;;;;;;2.42;1.15;;;;;;;17.85;61.32;98273.03;4998404;28;20057;-51
2024/04/06 10:25:48;;;;;;;4.05;1.45;;;;;;;17.87;61.35;98250.22;5002041;28;20056;-51
2024/04/06 10:28:16;;;;;;;8.50;1.77;;;;;;;17.92;61.17;98258.63;5002651;28;20116;-48
2024/04/06 10:30:42;;;;;;;6.57;1.10;;;;;;;17.84;61.49;98237.31;5000657;28;20161;-51
2024/04/06 10:33:08;;;;;;;6.35;1.50;;;;;;;17.89;61.97;98227.38;5002097;28;20581;-48
2024/04/06 10:35:34;;;;;;;3.15;1.30;;;;;;;17.84;61.31;98217.19;4998414;28;20054;-53
2024/04/06 10:38:00;;;;;;;5.10;1.45;;;;;;;17.86;60.85;98207.47;5004066;28;20065;-51
2024/04/06 10:40:27;;;;;;;2.47;1.13;;;;;;;17.89;61.75;98232.63;4996822;28;20053;-52
2024/04/06 10:42:54;;;;;;;3.70;0.98;;;;;;;17.91;61.69;98236.00;4981887;28;20138;-50
2024/04/06 10:45:20;;;;;;;4.18;1.48;;;;;;;17.85;61.72;98246.84;4994249;28;20046;-51
2024/04/06 10:47:46;;;;;;;1.70;1.02;;;;;;;17.90;61.35;98270.16;4976365;28;20050;-51
2024/04/06 10:50:12;;;;;;;6.97;1.88;;;;;;;17.98;61.50;98273.97;4988867;28;20498;-50
2024/04/06 10:52:39;;;;;;;4.25;1.70;;;;;;;17.95;61.14;98279.41;5002688;28;20057;-50
2024/04/06 10:55:21;;;;;;;3.08;0.82;;;;;;;18.01;60.86;98314.00;4997397;28;20058;-50
2024/04/06 10:57:47;;;;;;;6.80;1.75;;;;;;;18.08;60.08;98315.31;5002624;28;20054;-51
2024/04/06 11:00:16;;;;;;;5.78;1.30;;;;;;;18.07;60.02;98327.56;4998503;28;20149;-52
2024/04/06 11:02:42;;;;;;;4.20;1.33;;;;;;;18.18;60.35;98334.81;5000510;28;20415;-50
2024/04/06 11:05:09;;;;;;;4.60;1.23;;;;;;;18.17;60.16;98350.63;4987086;28;20502;-51
2024/04/06 11:07:37;;;;;;;2.78;2.17;;;;;;;18.07;59.95;98356.38;5017087;28;20579;-53
2024/04/06 11:10:04;;;;;;;5.57;0.95;;;;;;;18.03;60.58;98365.34;5000834;28;20060;-53
2024/04/06 11:12:30;;;;;;;4.18;1.33;;;;;;;18.02;60.30;98362.81;4996359;28;20050;-51
2024/04/06 11:15:00;;;;;;;3.53;1.20;;;;;;;18.02;59.69;98378.53;5003449;28;20045;-53
2024/04/06 11:17:27;;;;;;;3.08;1.10;;;;;;;17.85;59.19;98372.53;4999609;28;20058;-52
2024/04/06 11:19:54;;;;;;;7.35;1.15;;;;;;;17.88;59.53;98380.22;4969883;28;20058;-50
2024/04/06 11:22:21;;;;;;;2.67;1.40;;;;;;;17.77;59.38;98366.94;4983549;28;20041;-54
2024/04/06 11:24:48;;;;;;;6.45;1.42;;;;;;;17.78;59.08;98369.47;4975937;28;20039;-53
2024/04/06 11:27:20;;;;;;;2.90;1.45;;;;;;;17.73;59.33;98363.63;4963939;28;20045;-53
2024/04/06 11:29:49;;;;;;;4.82;1.65;;;;;;;17.66;60.01;98341.41;4987139;28;20059;-55